Time;durP1;ratioP1;P1;durP2;ratioP2;P2;SDS_P1;SDS_P2;PMS_P1;PMS_P2;Temp;Humidity;BMP_temperature;BMP_pressure;BME280_temperature;BME280_humidity;BME280_pressure;Samples;Min_cycle;Max_cycle;Signal;HPM_P1;HPM_P2
2024/02/29 00:00:32;;;;;;;;;;;;;;;10.15;47.74;99969.98;109539;1253;59519;-68
2024/02/29 00:03:00;;;;;;;;;;;;;;;10.02;47.99;99971.05;109562;1252;58609;-69
2024/02/29 00:05:27;;;;;;;;;;;;;;;9.88;48.29;99969.23;109576;1253;73931;-68
2024/02/29 00:07:55;;;;;;;;;;;;;;;9.89;48.32;99976.85;109546;1252;68035;-68
2024/02/29 00:10:22;;;;;;;;;;;;;;;9.92;48.22;99976.27;109578;1254;72749;-68
2024/02/29 00:12:50;;;;;;;;;;;;;;;10.07;48.04;99977.18;109571;1254;61099;-69
2024/02/29 00:15:17;;;;;;;;;;;;;;;9.97;48.15;99970.82;109667;1254;59891;-68
2024/02/29 00:17:45;;;;;;;;;;;;;;;9.87;48.41;99973.16;109555;1254;72839;-69
2024/02/29 00:20:12;;;;;;;;;;;;;;;9.99;48.17;99970.21;109588;1252;67764;-68
2024/02/29 00:22:41;;;;;;;;;;;;;;;9.91;48.34;99968.36;109234;1254;71458;-69
2024/02/29 00:25:09;;;;;;;;;;;;;;;9.87;48.39;99963.34;109539;1253;61087;-68
2024/02/29 00:27:36;;;;;;;;;;;;;;;9.68;48.93;99966.23;109578;1254;59413;-69
2024/02/29 00:30:04;;;;;;;;;;;;;;;9.78;48.72;99969.83;109590;1253;72932;-69
2024/02/29 00:32:32;;;;;;;;;;;;;;;9.69;48.83;99966.92;109183;1252;67190;-69
2024/02/29 00:34:59;;;;;;;;;;;;;;;9.54;49.31;99960.30;109434;1254;72722;-68
2024/02/29 00:37:28;;;;;;;;;;;;;;;9.49;49.42;99959.15;109143;1252;60927;-68
2024/02/29 00:39:58;;;;;;;;;;;;;;;9.42;49.66;99958.59;109555;1252;59923;-68
2024/02/29 00:42:25;;;;;;;;;;;;;;;9.59;49.37;99961.34;109226;1257;74079;-68
2024/02/29 00:44:53;;;;;;;;;;;;;;;9.63;49.23;99963.83;109602;1254;68909;-67
2024/02/29 00:47:20;;;;;;;;;;;;;;;9.62;49.26;99963.55;109536;1254;71448;-68
2024/02/29 00:49:48;;;;;;;;;;;;;;;9.50;49.52;99964.70;109614;1253;61149;-68
2024/02/29 00:52:15;;;;;;;;;;;;;;;9.42;49.73;99961.77;109618;1254;59842;-68
2024/02/29 00:54:43;;;;;;;;;;;;;;;9.47;49.75;99951.66;109618;1254;74038;-68
2024/02/29 00:57:10;;;;;;;;;;;;;;;9.29;50.26;99948.13;109615;1257;67224;-67
2024/02/29 00:59:38;;;;;;;;;;;;;;;9.28;50.47;99948.70;109620;1253;71511;-69
2024/02/29 01:02:05;;;;;;;;;;;;;;;9.16;50.77;99948.29;109585;1253;59645;-68
2024/02/29 01:04:33;;;;;;;;;;;;;;;9.08;51.17;99948.20;109591;1253;59976;-68
2024/02/29 01:07:00;;;;;;;;;;;;;;;9.12;51.14;99951.79;109585;1253;71780;-68
2024/02/29 01:09:29;;;;;;;;;;;;;;;9.10;51.26;99955.45;109632;1254;68544;-68
2024/02/29 01:11:56;;;;;;;;;;;;;;;9.10;51.28;99953.81;109235;1254;72705;-68
2024/02/29 01:14:24;;;;;;;;;;;;;;;9.17;51.25;99957.68;109591;1254;61083;-68
2024/02/29 01:16:53;;;;;;;;;;;;;;;9.23;51.00;99956.69;109600;1253;59916;-69
2024/02/29 01:19:21;;;;;;;;;;;;;;;9.05;51.60;99954.68;109608;1252;73228;-68
2024/02/29 01:21:48;;;;;;;;;;;;;;;9.14;51.60;99952.73;109588;1254;68270;-68
2024/02/29 01:24:16;;;;;;;;;;;;;;;9.28;51.30;99951.59;109589;1253;71428;-68
2024/02/29 01:26:43;;;;;;;;;;;;;;;9.32;51.26;99952.04;109566;1254;60918;-68
2024/02/29 01:29:11;;;;;;;;;;;;;;;9.29;51.40;99950.28;109243;1254;59874;-68
2024/02/29 01:31:38;;;;;;;;;;;;;;;9.35;51.25;99950.25;109604;1253;73460;-69
2024/02/29 01:34:06;;;;;;;;;;;;;;;9.38;51.24;99950.14;109620;1252;67627;-69
2024/02/29 01:36:33;;;;;;;;;;;;;;;9.47;51.08;99949.31;109580;1254;72720;-69
2024/02/29 01:39:01;;;;;;;;;;;;;;;9.50;51.04;99955.22;109639;1253;59671;-69
2024/02/29 01:41:28;;;;;;;;;;;;;;;9.51;51.03;99954.01;109581;1254;59855;-68
2024/02/29 01:43:56;;;;;;;;;;;;;;;9.39;51.36;99950.81;109569;1253;74685;-69
2024/02/29 01:46:23;;;;;;;;;;;;;;;9.33;51.59;99952.98;109584;1252;67633;-69
2024/02/29 01:48:51;;;;;;;;;;;;;;;9.46;51.36;99953.64;109585;1253;72773;-69
2024/02/29 01:51:18;;;;;;;;;;;;;;;9.26;51.97;99951.17;109562;1254;60968;-69
2024/02/29 01:53:46;;;;;;;;;;;;;;;9.29;52.01;99953.23;109455;1254;59841;-69
2024/02/29 01:56:13;;;;;;;;;;;;;;;9.23;52.24;99948.11;109569;1254;73440;-69
2024/02/29 01:58:41;;;;;;;;;;;;;;;9.16;52.54;99949.73;109447;1254;67599;-69
2024/02/29 02:01:08;;;;;;;;;;;;;;;9.20;52.36;99949.33;109528;1254;72724;-69
2024/02/29 02:03:37;;;;;;;;;;;;;;;9.12;52.66;99948.61;109570;1254;60909;-69
2024/02/29 02:06:04;;;;;;;;;;;;;;;9.15;52.54;99943.49;109577;1254;58862;-69
2024/02/29 02:08:32;;;;;;;;;;;;;;;9.12;52.73;99945.36;109584;1253;76356;-69
2024/02/29 02:10:59;;;;;;;;;;;;;;;8.93;53.31;99943.02;109615;1253;68847;-69
2024/02/29 02:13:27;;;;;;;;;;;;;;;8.85;53.75;99939.98;109597;1254;72710;-68
2024/02/29 02:15:54;;;;;;;;;;;;;;;8.92;53.62;99938.92;109574;1254;59706;-68
2024/02/29 02:18:22;;;;;;;;;;;;;;;8.87;53.78;99939.23;109593;1254;59145;-67
2024/02/29 02:20:49;;;;;;;;;;;;;;;8.99;53.72;99937.52;109581;1254;73460;-68
2024/02/29 02:23:17;;;;;;;;;;;;;;;9.05;53.60;99940.91;109608;1253;67736;-68
2024/02/29 02:25:44;;;;;;;;;;;;;;;9.09;53.50;99941.38;109208;1254;71440;-68
2024/02/29 02:28:12;;;;;;;;;;;;;;;9.05;53.64;99936.67;109577;1254;59643;-68
2024/02/29 02:30:40;;;;;;;;;;;;;;;9.09;53.64;99936.73;109626;1253;59022;-69
2024/02/29 02:33:09;;;;;;;;;;;;;;;9.29;53.17;99940.63;109598;1253;74834;-69
2024/02/29 02:35:36;;;;;;;;;;;;;;;9.18;53.41;99940.67;109589;1252;68837;-69
2024/02/29 02:38:04;;;;;;;;;;;;;;;9.17;53.51;99944.83;109587;1253;72754;-69
2024/02/29 02:40:31;;;;;;;;;;;;;;;9.12;53.62;99946.05;109577;1254;59778;-69
2024/02/29 02:43:00;;;;;;;;;;;;;;;9.02;53.99;99941.55;109630;1253;59927;-69
2024/02/29 02:45:28;;;;;;;;;;;;;;;9.04;54.14;99941.71;109597;1253;74710;-69
2024/02/29 02:47:55;;;;;;;;;;;;;;;9.01;54.31;99941.90;109584;1253;68511;-69
2024/02/29 02:50:23;;;;;;;;;;;;;;;8.95;54.38;99939.70;109309;1254;71433;-69
2024/02/29 02:52:51;;;;;;;;;;;;;;;8.90;54.52;99941.72;109595;1253;59800;-69
2024/02/29 02:55:18;;;;;;;;;;;;;;;8.79;54.94;99940.66;109198;1252;58900;-70
2024/02/29 02:57:46;;;;;;;;;;;;;;;8.85;54.86;99938.64;109567;1254;73640;-69
2024/02/29 03:00:14;;;;;;;;;;;;;;;8.75;55.17;99937.83;109559;1254;68846;-69
2024/02/29 03:02:41;;;;;;;;;;;;;;;8.69;55.53;99939.08;109399;1254;72854;-69
2024/02/29 03:05:09;;;;;;;;;;;;;;;8.74;55.34;99939.30;109563;1254;62964;-69
2024/02/29 03:07:38;;;;;;;;;;;;;;;8.72;55.46;99937.01;109720;1254;58782;-69
2024/02/29 03:10:06;;;;;;;;;;;;;;;8.68;55.60;99933.49;109654;1254;73440;-69
2024/02/29 03:12:35;;;;;;;;;;;;;;;8.74;55.42;99929.19;109552;1253;68931;-69
2024/02/29 03:15:03;;;;;;;;;;;;;;;8.66;55.72;99932.21;109525;1254;72726;-68
2024/02/29 03:17:30;;;;;;;;;;;;;;;8.73;55.62;99929.98;109247;1256;60881;-68
2024/02/29 03:19:58;;;;;;;;;;;;;;;8.70;55.63;99925.80;109126;1256;58908;-69
2024/02/29 03:22:25;;;;;;;;;;;;;;;8.69;55.73;99928.44;109203;1255;74872;-68
2024/02/29 03:24:54;;;;;;;;;;;;;;;8.72;55.61;99929.20;109146;1257;67560;-69
2024/02/29 03:27:21;;;;;;;;;;;;;;;8.69;55.72;99933.19;109295;1256;72752;-69
2024/02/29 03:29:49;;;;;;;;;;;;;;;8.64;55.81;99930.07;109082;1257;61086;-69
2024/02/29 03:32:17;;;;;;;;;;;;;;;8.63;55.94;99933.73;109190;1257;59885;-69
2024/02/29 03:34:45;;;;;;;;;;;;;;;8.75;55.63;99938.75;109056;1257;74781;-70
2024/02/29 03:37:13;;;;;;;;;;;;;;;8.71;55.68;99936.25;109212;1256;67225;-69
2024/02/29 03:39:41;;;;;;;;;;;;;;;8.73;55.54;99935.43;109240;1257;73192;-70
2024/02/29 03:42:09;;;;;;;;;;;;;;;8.68;55.61;99937.20;109147;1256;61131;-69
2024/02/29 03:44:37;;;;;;;;;;;;;;;8.78;55.41;99938.02;109190;1256;60335;-69
2024/02/29 03:47:04;;;;;;;;;;;;;;;8.71;55.44;99940.10;109174;1256;74571;-69
2024/02/29 03:49:32;;;;;;;;;;;;;;;8.61;55.82;99943.44;109534;1253;67655;-69
2024/02/29 03:51:59;;;;;;;;;;;;;;;8.72;55.47;99939.80;109220;1253;71578;-69
2024/02/29 03:54:27;;;;;;;;;;;;;;;8.67;55.67;99944.54;109544;1252;59981;-69
2024/02/29 03:56:54;;;;;;;;;;;;;;;8.70;55.47;99944.45;109377;1252;59843;-69
2024/02/29 03:59:22;;;;;;;;;;;;;;;8.76;55.31;99945.23;109210;1253;74694;-69
2024/02/29 04:01:49;;;;;;;;;;;;;;;8.51;55.77;99947.75;109560;1254;67229;-69
2024/02/29 04:04:19;;;;;;;;;;;;;;;8.59;55.61;99946.89;109496;1253;72710;-69
2024/02/29 04:06:47;;;;;;;;;;;;;;;8.61;55.54;99948.84;109529;1254;60936;-69
2024/02/29 04:09:14;;;;;;;;;;;;;;;8.60;55.51;99957.50;109563;1253;59921;-69
2024/02/29 04:11:42;;;;;;;;;;;;;;;8.54;55.51;99956.08;109544;1254;74743;-69
2024/02/29 04:14:09;;;;;;;;;;;;;;;8.55;55.44;99954.33;109070;1254;67375;-69
2024/02/29 04:16:37;;;;;;;;;;;;;;;8.41;55.65;99956.75;109366;1254;72785;-69
2024/02/29 04:19:05;;;;;;;;;;;;;;;8.34;55.91;99953.94;109356;1256;60934;-69
2024/02/29 04:21:32;;;;;;;;;;;;;;;8.32;55.87;99950.05;109395;1253;59979;-70
2024/02/29 04:24:00;;;;;;;;;;;;;;;8.29;55.99;99949.39;109417;1254;74708;-70
2024/02/29 04:26:28;;;;;;;;;;;;;;;8.38;55.71;99949.50;109382;1254;68129;-70
2024/02/29 04:28:56;;;;;;;;;;;;;;;8.28;55.88;99950.42;109427;1253;72755;-69
2024/02/29 04:31:23;;;;;;;;;;;;;;;8.16;56.17;99948.07;109404;1254;60926;-69
2024/02/29 04:33:51;;;;;;;;;;;;;;;8.12;56.22;99944.52;109409;1254;59046;-68
2024/02/29 04:36:19;;;;;;;;;;;;;;;8.17;56.11;99951.63;109412;1253;72756;-68
2024/02/29 04:38:46;;;;;;;;;;;;;;;8.15;56.20;99946.93;109395;1254;68515;-69
2024/02/29 04:41:14;;;;;;;;;;;;;;;8.27;55.74;99951.56;109408;1254;74896;-68
2024/02/29 04:43:41;;;;;;;;;;;;;;;8.36;55.42;99952.23;109403;1254;61925;-69
2024/02/29 04:46:09;;;;;;;;;;;;;;;8.22;55.70;99958.30;109427;1254;62659;-70
2024/02/29 04:48:37;;;;;;;;;;;;;;;8.23;55.58;99960.18;109413;1252;73440;-70
2024/02/29 04:51:05;;;;;;;;;;;;;;;8.16;55.72;99955.45;109542;1253;67103;-69
2024/02/29 04:53:32;;;;;;;;;;;;;;;8.25;55.52;99959.27;109526;1253;72728;-69
2024/02/29 04:56:00;;;;;;;;;;;;;;;8.20;55.60;99961.42;109532;1253;60052;-68
2024/02/29 04:58:28;;;;;;;;;;;;;;;8.01;56.03;99964.68;109563;1253;59038;-68
2024/02/29 05:00:56;;;;;;;;;;;;;;;7.97;56.36;99971.15;109523;1253;75113;-69
2024/02/29 05:03:23;;;;;;;;;;;;;;;7.98;56.33;99973.33;109545;1253;68246;-69
2024/02/29 05:05:51;;;;;;;;;;;;;;;8.00;56.24;99977.17;109487;1252;72757;-69
2024/02/29 05:08:18;;;;;;;;;;;;;;;8.08;56.14;99980.64;109213;1253;60984;-69
2024/02/29 05:10:46;;;;;;;;;;;;;;;8.13;55.98;99978.63;109503;1253;59056;-69
2024/02/29 05:13:13;;;;;;;;;;;;;;;8.21;55.74;99983.78;109648;1253;74720;-69
2024/02/29 05:15:41;;;;;;;;;;;;;;;8.30;55.52;99986.16;109225;1253;68827;-70
2024/02/29 05:18:08;;;;;;;;;;;;;;;8.42;55.26;99992.10;109528;1252;72778;-69
2024/02/29 05:20:36;;;;;;;;;;;;;;;8.37;55.41;99997.26;109638;1253;59671;-70
2024/02/29 05:23:04;;;;;;;;;;;;;;;8.50;55.26;100001.08;109571;1253;59878;-68
2024/02/29 05:25:31;;;;;;;;;;;;;;;8.70;54.80;100003.23;109554;1253;74808;-70
2024/02/29 05:27:59;;;;;;;;;;;;;;;8.91;54.23;100007.58;109519;1253;68837;-71
2024/02/29 05:30:26;;;;;;;;;;;;;;;9.03;53.85;100003.96;109611;1252;72743;-68
2024/02/29 05:32:54;;;;;;;;;;;;;;;9.16;53.64;100002.87;109512;1253;61815;-69
2024/02/29 05:35:22;;;;;;;;;;;;;;;9.15;53.48;100002.08;109494;1252;59007;-70
2024/02/29 05:37:50;;;;;;;;;;;;;;;9.30;53.26;100001.45;109319;1254;74765;-70
2024/02/29 05:40:17;;;;;;;;;;;;;;;9.03;53.53;100000.85;109617;1253;67771;-69
2024/02/29 05:42:45;;;;;;;;;;;;;;;9.02;53.81;100000.49;109333;1252;73121;-68
2024/02/29 05:45:13;;;;;;;;;;;;;;;9.14;53.48;100000.63;109533;1253;59664;-69
2024/02/29 05:47:40;;;;;;;;;;;;;;;9.29;53.01;99999.40;109559;1253;59081;-70
2024/02/29 05:50:08;;;;;;;;;;;;;;;9.34;52.81;99995.67;109506;1253;74704;-69
2024/02/29 05:52:36;;;;;;;;;;;;;;;9.39;52.67;99995.71;109332;1253;67356;-70
2024/02/29 05:55:03;;;;;;;;;;;;;;;9.52;52.47;100001.35;109202;1253;72770;-68
2024/02/29 05:57:31;;;;;;;;;;;;;;;9.62;52.22;100002.80;109509;1253;60950;-69
2024/02/29 06:00:00;;;;;;;;;;;;;;;9.87;51.63;100007.75;109585;1253;58973;-70
2024/02/29 06:02:36;;;;;;;;;;;;;;;10.18;50.96;100013.34;109566;1253;74755;-71
2024/02/29 06:05:05;;;;;;;;;;;;;;;10.13;50.55;100014.25;109437;1253;66455;-71
2024/02/29 06:07:34;;;;;;;;;;;;;;;10.27;50.22;100019.26;109425;1253;71454;-69
2024/02/29 06:10:02;;;;;;;;;;;;;;;10.27;50.12;100016.95;109434;1253;61085;-69
2024/02/29 06:12:30;;;;;;;;;;;;;;;10.28;50.10;100014.14;109351;1256;59043;-69
2024/02/29 06:14:58;;;;;;;;;;;;;;;10.28;50.02;100015.67;109260;1255;74725;-69
2024/02/29 06:17:25;;;;;;;;;;;;;;;10.23;49.97;100012.08;109180;1255;68558;-69
2024/02/29 06:19:53;;;;;;;;;;;;;;;10.33;49.56;100006.27;109193;1255;72749;-67
2024/02/29 06:22:22;;;;;;;;;;;;;;;10.43;49.56;100011.98;109151;1256;59841;-68
2024/02/29 06:24:50;;;;;;;;;;;;;;;10.75;48.73;100012.55;109063;1257;59867;-69
2024/02/29 06:27:20;;;;;;;;;;;;;;;11.12;48.10;100012.47;109189;1257;72736;-71
2024/02/29 06:29:47;;;;;;;;;;;;;;;11.03;48.00;100006.91;109309;1256;68814;-71
2024/02/29 06:32:15;;;;;;;;;;;;;;;10.73;48.30;100011.31;109003;1256;71750;-70
2024/02/29 06:34:42;;;;;;;;;;;;;;;10.80;48.37;100014.06;109193;1256;61072;-70
2024/02/29 06:37:11;;;;;;;;;;;;;;;10.74;48.28;100014.94;109174;1257;59890;-70
2024/02/29 06:39:39;;;;;;;;;;;;;;;10.94;47.89;100018.41;109297;1255;73498;-70
2024/02/29 06:42:06;;;;;;;;;;;;;;;10.88;48.22;100018.77;109295;1256;68466;-70
2024/02/29 06:44:34;;;;;;;;;;;;;;;10.99;47.97;100021.45;109415;1253;72698;-70
2024/02/29 06:47:01;;;;;;;;;;;;;;;11.12;47.66;100028.59;109427;1253;59702;-71
2024/02/29 06:49:29;;;;;;;;;;;;;;;11.01;47.93;100021.54;109439;1253;59943;-71
2024/02/29 06:51:56;;;;;;;;;;;;;;;11.24;47.67;100023.60;109393;1255;73732;-71
2024/02/29 06:54:24;;;;;;;;;;;;;;;11.01;48.18;100021.05;109169;1254;68534;-71
2024/02/29 06:56:51;;;;;;;;;;;;;;;11.56;47.47;100025.02;109328;1254;72398;-71
2024/02/29 06:59:18;;;;;;;;;;;;;;;11.68;46.95;100026.58;109363;1257;59684;-70
2024/02/29 07:01:46;;;;;;;;;;;;;;;11.62;47.06;100026.27;109300;1254;59017;-71
2024/02/29 07:04:14;;;;;;;;;;;;;;;11.73;46.94;100019.96;109408;1254;74710;-71
2024/02/29 07:06:41;;;;;;;;;;;;;;;12.21;46.33;100018.30;109060;1254;67723;-71
2024/02/29 07:09:09;;;;;;;;;;;;;;;12.46;45.83;100020.69;109378;1255;71494;-71
2024/02/29 07:11:38;;;;;;;;;;;;;;;12.56;45.59;100024.73;109164;1254;58967;-71
2024/02/29 07:14:06;;;;;;;;;;;;;;;12.64;45.40;100025.23;109113;1254;59333;-71
2024/02/29 07:16:35;;;;;;;;;;;;;;;12.62;45.38;100030.48;109310;1254;73458;-68
2024/02/29 07:19:03;;;;;;;;;;;;;;;12.41;45.86;100032.92;109435;1254;68850;-70
2024/02/29 07:21:31;;;;;;;;;;;;;;;12.38;46.16;100034.14;109287;1254;71808;-70
2024/02/29 07:23:59;;;;;;;;;;;;;;;12.68;45.73;100037.76;109411;1253;58961;-70
2024/02/29 07:26:27;;;;;;;;;;;;;;;12.68;45.78;100034.80;109520;1253;59016;-70
2024/02/29 07:28:54;;;;;;;;;;;;;;;12.84;45.68;100040.86;109608;1253;74704;-70
2024/02/29 07:31:22;;;;;;;;;;;;;;;13.01;45.51;100038.58;109512;1253;67646;-70
2024/02/29 07:33:49;;;;;;;;;;;;;;;12.95;45.68;100045.33;109484;1253;72741;-68
2024/02/29 07:36:17;;;;;;;;;;;;;;;12.63;46.39;100052.41;109479;1253;58978;-70
2024/02/29 07:38:46;;;;;;;;;;;;;;;12.41;46.99;100051.39;109466;1253;59133;-69
2024/02/29 07:41:14;;;;;;;;;;;;;;;12.43;47.35;100051.73;109351;1253;73466;-69
2024/02/29 07:43:42;;;;;;;;;;;;;;;12.32;47.74;100058.19;109465;1253;68640;-70
2024/02/29 07:46:10;;;;;;;;;;;;;;;12.84;46.98;100064.47;109328;1253;72836;-69
2024/02/29 07:48:37;;;;;;;;;;;;;;;13.37;46.25;100066.02;109498;1253;59340;-70
2024/02/29 07:51:05;;;;;;;;;;;;;;;13.78;45.62;100073.92;109370;1253;59858;-70
2024/02/29 07:53:32;;;;;;;;;;;;;;;13.53;45.62;100070.05;109453;1253;74728;-70
2024/02/29 07:56:03;;;;;;;;;;;;;;;13.37;46.40;100065.33;109439;1253;68952;-70
2024/02/29 07:58:30;;;;;;;;;;;;;;;13.34;46.61;100060.83;109450;1253;72728;-70
2024/02/29 08:00:58;;;;;;;;;;;;;;;13.42;46.85;100062.07;109444;1254;59283;-70
2024/02/29 08:03:25;;;;;;;;;;;;;;;13.09;47.91;100057.77;109477;1253;60215;-71
2024/02/29 08:05:53;;;;;;;;;;;;;;;12.86;48.69;100057.21;109470;1253;73447;-70
2024/02/29 08:08:20;;;;;;;;;;;;;;;13.28;48.41;100059.64;109449;1253;68935;-70
2024/02/29 08:10:48;;;;;;;;;;;;;;;13.59;48.14;100068.00;109433;1253;72704;-71
2024/02/29 08:13:15;;;;;;;;;;;;;;;13.75;48.02;100064.58;109166;1253;59680;-71
2024/02/29 08:15:44;;;;;;;;;;;;;;;13.53;48.64;100064.83;109402;1252;59838;-70
2024/02/29 08:18:13;;;;;;;;;;;;;;;13.74;48.45;100065.21;109470;1253;74254;-70
2024/02/29 08:20:42;;;;;;;;;;;;;;;13.55;48.87;100060.48;109450;1253;68837;-70
2024/02/29 08:23:12;;;;;;;;;;;;;;;13.69;48.81;100056.34;109444;1253;74898;-70
2024/02/29 08:25:39;;;;;;;;;;;;;;;13.67;48.68;100059.91;109439;1253;60457;-70
2024/02/29 08:28:06;;;;;;;;;;;;;;;13.58;48.96;100059.50;109331;1253;203958;-69
2024/02/29 08:30:34;;;;;;;;;;;;;;;13.25;49.98;100063.92;109432;1254;74193;-70
2024/02/29 08:33:02;;;;;;;;;;;;;;;13.28;49.96;100057.80;109443;1253;67579;-69
2024/02/29 08:35:29;;;;;;;;;;;;;;;13.50;49.80;100060.66;109453;1253;71563;-69
2024/02/29 08:37:57;;;;;;;;;;;;;;;13.53;49.59;100057.94;109409;1253;61796;-69
2024/02/29 08:40:24;;;;;;;;;;;;;;;13.78;49.28;100055.95;109450;1256;59913;-69
2024/02/29 08:42:52;;;;;;;;;;;;;;;14.06;48.67;100062.56;109456;1253;73906;-69
2024/02/29 08:45:20;;;;;;;;;;;;;;;13.71;49.10;100059.33;109130;1253;68838;-68
2024/02/29 08:47:50;;;;;;;;;;;;;;;13.71;49.52;100060.95;109186;1253;72796;-68
2024/02/29 08:50:17;;;;;;;;;;;;;;;13.69;49.52;100060.02;109395;1254;61796;-69
2024/02/29 08:52:44;;;;;;;;;;;;;;;13.88;49.26;100058.64;109447;1253;60138;-69
2024/02/29 08:55:12;;;;;;;;;;;;;;;14.23;48.59;100061.64;109415;1253;74692;-71
2024/02/29 08:57:39;;;;;;;;;;;;;;;14.23;48.69;100062.83;109426;1253;67670;-70
2024/02/29 09:00:07;;;;;;;;;;;;;;;14.15;48.67;100064.90;109400;1253;72712;-70
2024/02/29 09:02:35;;;;;;;;;;;;;;;14.11;49.03;100060.15;109435;1254;60434;-69
2024/02/29 09:05:03;;;;;;;;;;;;;;;13.66;50.17;100052.02;109450;1253;59958;-70
2024/02/29 09:07:30;;;;;;;;;;;;;;;13.83;49.91;100052.58;109458;1253;74708;-69
2024/02/29 09:09:58;;;;;;;;;;;;;;;13.81;49.97;100057.98;109483;1252;67566;-70
2024/02/29 09:12:25;;;;;;;;;;;;;;;13.89;49.81;100055.91;109442;1253;72747;-70
2024/02/29 09:14:53;;;;;;;;;;;;;;;13.92;50.07;100057.16;109196;1254;61779;-70
2024/02/29 09:17:20;;;;;;;;;;;;;;;14.32;49.51;100060.33;109422;1253;59813;-70
2024/02/29 09:19:48;;;;;;;;;;;;;;;14.57;48.78;100058.45;109509;1252;74698;-70
2024/02/29 09:22:15;;;;;;;;;;;;;;;14.65;48.60;100059.45;109550;1252;68977;-71
2024/02/29 09:24:43;;;;;;;;;;;;;;;14.91;48.28;100060.33;109580;1253;72691;-70
2024/02/29 09:27:11;;;;;;;;;;;;;;;15.25;47.31;100063.77;109537;1253;60677;-70
2024/02/29 09:29:38;;;;;;;;;;;;;;;15.11;47.44;100063.89;109545;1252;59385;-70
2024/02/29 09:32:06;;;;;;;;;;;;;;;15.47;47.03;100060.55;109545;1253;75778;-70
2024/02/29 09:34:37;;;;;;;;;;;;;;;15.84;46.27;100065.19;109568;1252;68247;-70
2024/02/29 09:37:09;;;;;;;;;;;;;;;16.43;45.17;100067.13;109580;1253;72668;-70
2024/02/29 09:39:36;;;;;;;;;;;;;;;16.75;44.20;100068.78;109551;1253;59163;-70
2024/02/29 09:42:05;;;;;;;;;;;;;;;16.72;44.29;100061.65;109503;1252;58931;-71
2024/02/29 09:44:42;;;;;;;;;;;;;;;16.51;44.63;100062.59;109604;1253;73522;-70
2024/02/29 09:47:11;;;;;;;;;;;;;;;17.04;44.16;100064.38;109559;1253;67573;-70
2024/02/29 09:49:38;;;;;;;;;;;;;;;17.60;42.46;100063.49;109417;1254;71465;-70
2024/02/29 09:52:06;;;;;;;;;;;;;;;17.26;42.83;100060.95;109559;1253;60165;-70
2024/02/29 09:54:34;;;;;;;;;;;;;;;17.48;42.84;100058.15;109424;1252;59117;-70
2024/02/29 09:57:02;;;;;;;;;;;;;;;17.55;42.37;100058.77;109560;1252;74702;-69
2024/02/29 09:59:29;;;;;;;;;;;;;;;17.77;42.41;100055.76;109443;1253;69018;-70
2024/02/29 10:01:57;;;;;;;;;;;;;;;18.12;41.71;100052.85;109268;1253;71516;-70
2024/02/29 10:04:26;;;;;;;;;;;;;;;18.23;41.50;100058.64;109473;1252;58932;-70
2024/02/29 10:06:54;;;;;;;;;;;;;;;18.62;40.49;100061.91;109564;1252;60010;-70
2024/02/29 10:09:22;;;;;;;;;;;;;;;18.80;40.32;100061.63;109565;1253;73776;-70
2024/02/29 10:11:52;;;;;;;;;;;;;;;18.99;39.76;100057.41;109536;1252;67128;-70
2024/02/29 10:14:26;;;;;;;;;;;;;;;18.47;40.46;100052.29;109303;1256;72754;-70
2024/02/29 10:16:54;;;;;;;;;;;;;;;18.51;40.29;100049.66;109143;1256;60211;-71
2024/02/29 10:19:22;;;;;;;;;;;;;;;18.37;40.56;100045.02;109197;1255;58891;-71
2024/02/29 10:21:51;;;;;;;;;;;;;;;18.12;41.13;100045.52;109211;1256;74724;-71
2024/02/29 10:24:19;;;;;;;;;;;;;;;18.50;40.47;100047.94;109216;1255;68886;-70
2024/02/29 10:26:47;;;;;;;;;;;;;;;18.52;40.43;100047.64;109212;1255;71424;-69
2024/02/29 10:29:16;;;;;;;;;;;;;;;18.41;40.47;100044.85;109063;1257;58912;-69
2024/02/29 10:31:44;;;;;;;;;;;;;;;18.81;40.05;100045.91;109194;1256;59069;-69
2024/02/29 10:34:12;;;;;;;;;;;;;;;19.06;39.46;100044.23;109262;1255;73463;-69
2024/02/29 10:36:40;;;;;;;;;;;;;;;19.40;38.76;100047.15;109214;1255;68889;-70
2024/02/29 10:39:08;;;;;;;;;;;;;;;19.44;38.60;100047.61;109255;1256;73039;-70
2024/02/29 10:41:36;;;;;;;;;;;;;;;18.69;39.33;100047.34;109256;1255;60108;-70
2024/02/29 10:44:04;;;;;;;;;;;;;;;18.44;39.99;100043.07;109033;1255;58977;-70
2024/02/29 10:46:32;;;;;;;;;;;;;;;19.07;38.86;100041.95;109517;1253;74054;-70
2024/02/29 10:49:01;;;;;;;;;;;;;;;19.36;38.46;100038.29;109495;1254;68811;-70
2024/02/29 10:51:32;;;;;;;;;;;;;;;19.29;38.53;100037.27;109640;1253;71911;-70
2024/02/29 10:54:08;;;;;;;;;;;;;;;18.99;39.29;100039.04;109567;1252;60153;-70
2024/02/29 10:56:37;;;;;;;;;;;;;;;18.89;39.30;100030.71;109587;1253;59874;-70
2024/02/29 10:59:05;;;;;;;;;;;;;;;18.67;39.59;100026.10;109610;1253;73607;-71
2024/02/29 11:01:33;;;;;;;;;;;;;;;19.16;38.75;100024.38;109519;1254;67673;-70
2024/02/29 11:04:00;;;;;;;;;;;;;;;19.25;38.78;100027.15;109556;1253;71447;-71
2024/02/29 11:06:46;;;;;;;;;;;;;;;19.69;38.63;100017.86;109559;1253;58916;-71
2024/02/29 11:09:19;;;;;;;;;;;;;;;19.20;38.73;100021.37;109590;1254;58996;-70
2024/02/29 11:11:48;;;;;;;;;;;;;;;19.09;39.22;100022.44;109390;1253;74690;-71
2024/02/29 11:14:17;;;;;;;;;;;;;;;18.97;39.54;100017.29;109565;1254;67563;-71
2024/02/29 11:16:48;;;;;;;;;;;;;;;18.46;40.49;100012.11;109577;1253;71470;-71
2024/02/29 11:19:16;;;;;;;;;;;;;;;18.73;40.23;100008.07;109531;1253;59011;-71
2024/02/29 11:21:44;;;;;;;;;;;;;;;18.42;41.00;100008.81;109638;1252;58945;-71
2024/02/29 11:24:21;;;;;;;;;;;;;;;18.00;41.77;99996.69;109586;1254;75208;-71
2024/02/29 11:26:58;;;;;;;;;;;;;;;18.22;41.61;99994.86;109663;1254;67235;-71
2024/02/29 11:29:25;;;;;;;;;;;;;;;18.23;41.51;99992.45;109589;1252;71440;-70
2024/02/29 11:31:53;;;;;;;;;;;;;;;18.31;41.63;99991.37;109550;1253;59152;-70
2024/02/29 11:34:21;;;;;;;;;;;;;;;18.14;41.84;99990.95;109587;1252;58893;-71
2024/02/29 11:36:49;;;;;;;;;;;;;;;18.04;42.15;99985.06;109566;1253;73597;-71
2024/02/29 11:39:22;;;;;;;;;;;;;;;18.36;41.45;99984.83;109606;1254;68551;-71
2024/02/29 11:41:50;;;;;;;;;;;;;;;19.02;40.38;99992.41;109703;1252;71556;-71
2024/02/29 11:44:18;;;;;;;;;;;;;;;18.85;40.58;99997.98;109725;1253;58934;-71
2024/02/29 11:46:46;;;;;;;;;;;;;;;19.46;39.63;99996.95;109627;1252;59836;-71
2024/02/29 11:49:14;;;;;;;;;;;;;;;19.35;39.75;99994.48;109619;1253;73455;-71
2024/02/29 11:51:45;;;;;;;;;;;;;;;19.38;39.34;99992.02;109624;1252;68774;-71
2024/02/29 11:54:13;;;;;;;;;;;;;;;19.16;39.49;99993.52;109561;1252;71482;-71
2024/02/29 11:56:41;;;;;;;;;;;;;;;19.52;39.27;99992.63;109174;1253;60206;-71
2024/02/29 11:59:13;;;;;;;;;;;;;;;19.96;38.30;99996.54;109535;1253;58925;-71
2024/02/29 12:01:41;;;;;;;;;;;;;;;19.80;38.21;99994.75;109508;1253;74711;-71
2024/02/29 12:04:09;;;;;;;;;;;;;;;18.99;39.03;100000.29;109649;1252;67672;-71
2024/02/29 12:06:37;;;;;;;;;;;;;;;19.25;38.88;100000.66;109570;1252;72764;-70
2024/02/29 12:09:11;;;;;;;;;;;;;;;19.57;38.83;99996.68;109553;1253;58974;-70
2024/02/29 12:11:39;;;;;;;;;;;;;;;19.86;37.84;99997.31;109429;1252;59918;-71
2024/02/29 12:14:09;;;;;;;;;;;;;;;19.45;38.15;99990.43;109622;1252;73497;-71
2024/02/29 12:16:37;;;;;;;;;;;;;;;19.19;37.88;99990.76;109600;1253;67993;-70
2024/02/29 12:19:05;;;;;;;;;;;;;;;19.36;37.53;99987.11;109611;1253;71441;-70
2024/02/29 12:21:35;;;;;;;;;;;;;;;19.33;37.40;99986.23;109619;1252;58941;-70
2024/02/29 12:24:03;;;;;;;;;;;;;;;19.43;37.55;99979.84;109616;1252;59998;-71
2024/02/29 12:26:30;;;;;;;;;;;;;;;19.40;37.93;99980.02;109612;1254;74694;-71
2024/02/29 12:28:57;;;;;;;;;;;;;;;19.38;37.90;99979.41;109570;1252;67656;-71
2024/02/29 12:31:25;;;;;;;;;;;;;;;19.17;38.31;99976.60;109557;1252;72725;-71
2024/02/29 12:33:53;;;;;;;;;;;;;;;19.33;38.02;99978.30;109562;1253;58914;-71
2024/02/29 12:36:21;;;;;;;;;;;;;;;19.18;37.90;99981.48;109586;1253;59154;-71
2024/02/29 12:38:49;;;;;;;;;;;;;;;19.24;38.01;99974.45;109563;1252;74908;-71